sensor_id;sensor_type;location;lat;lon;timestamp;P1;durP1;ratioP1;P2;durP2;ratioP2
56233;SDS011;42141;53.240;6.580;2023-06-26T00:01:16;7.28;;;5.30;;
56233;SDS011;42141;53.240;6.580;2023-06-26T00:03:42;5.97;;;4.32;;
56233;SDS011;42141;53.240;6.580;2023-06-26T00:06:07;6.82;;;5.07;;
56233;SDS011;42141;53.240;6.580;2023-06-26T00:08:33;5.80;;;4.82;;
56233;SDS011;42141;53.240;6.580;2023-06-26T00:11:04;7.55;;;4.65;;
56233;SDS011;42141;53.240;6.580;2023-06-26T00:13:30;6.57;;;5.43;;
56233;SDS011;42141;53.240;6.580;2023-06-26T00:15:56;5.40;;;4.88;;
56233;SDS011;42141;53.240;6.580;2023-06-26T00:18:22;5.90;;;4.63;;
56233;SDS011;42141;53.240;6.580;2023-06-26T00:20:48;11.13;;;5.55;;
56233;SDS011;42141;53.240;6.580;2023-06-26T00:23:16;12.68;;;6.05;;
56233;SDS011;42141;53.240;6.580;2023-06-26T00:25:42;6.72;;;5.40;;
56233;SDS011;42141;53.240;6.580;2023-06-26T00:28:08;6.20;;;5.40;;
56233;SDS011;42141;53.240;6.580;2023-06-26T00:30:34;7.82;;;5.55;;
56233;SDS011;42141;53.240;6.580;2023-06-26T00:33:00;7.30;;;5.13;;
56233;SDS011;42141;53.240;6.580;2023-06-26T00:35:26;9.15;;;6.28;;
56233;SDS011;42141;53.240;6.580;2023-06-26T00:37:52;12.57;;;5.55;;
56233;SDS011;42141;53.240;6.580;2023-06-26T00:40:17;6.13;;;5.05;;
56233;SDS011;42141;53.240;6.580;2023-06-26T00:42:43;6.80;;;5.20;;
56233;SDS011;42141;53.240;6.580;2023-06-26T00:45:09;6.88;;;5.30;;
56233;SDS011;42141;53.240;6.580;2023-06-26T00:47:34;7.47;;;5.55;;
56233;SDS011;42141;53.240;6.580;2023-06-26T00:50:01;5.93;;;5.32;;
56233;SDS011;42141;53.240;6.580;2023-06-26T00:52:27;10.43;;;5.88;;
56233;SDS011;42141;53.240;6.580;2023-06-26T00:54:53;7.30;;;5.80;;
56233;SDS011;42141;53.240;6.580;2023-06-26T00:57:19;6.72;;;5.47;;
56233;SDS011;42141;53.240;6.580;2023-06-26T00:59:44;17.02;;;7.20;;
56233;SDS011;42141;53.240;6.580;2023-06-26T01:02:10;6.20;;;5.60;;
56233;SDS011;42141;53.240;6.580;2023-06-26T01:04:36;7.82;;;5.53;;
56233;SDS011;42141;53.240;6.580;2023-06-26T01:07:02;13.95;;;5.93;;
56233;SDS011;42141;53.240;6.580;2023-06-26T01:09:29;6.95;;;5.78;;
56233;SDS011;42141;53.240;6.580;2023-06-26T01:11:55;7.15;;;6.07;;
56233;SDS011;42141;53.240;6.580;2023-06-26T01:14:21;7.10;;;5.90;;
56233;SDS011;42141;53.240;6.580;2023-06-26T01:16:47;7.80;;;6.15;;
56233;SDS011;42141;53.240;6.580;2023-06-26T01:19:23;8.40;;;5.93;;
56233;SDS011;42141;53.240;6.580;2023-06-26T01:21:51;8.85;;;5.93;;
56233;SDS011;42141;53.240;6.580;2023-06-26T01:24:23;7.07;;;5.68;;
56233;SDS011;42141;53.240;6.580;2023-06-26T01:26:52;7.00;;;6.20;;
56233;SDS011;42141;53.240;6.580;2023-06-26T01:29:19;8.43;;;6.57;;
56233;SDS011;42141;53.240;6.580;2023-06-26T01:31:48;10.68;;;6.13;;
56233;SDS011;42141;53.240;6.580;2023-06-26T01:34:18;7.88;;;6.15;;
56233;SDS011;42141;53.240;6.580;2023-06-26T01:36:44;6.72;;;6.03;;
56233;SDS011;42141;53.240;6.580;2023-06-26T01:39:12;7.70;;;6.07;;
56233;SDS011;42141;53.240;6.580;2023-06-26T01:41:41;7.80;;;5.90;;
56233;SDS011;42141;53.240;6.580;2023-06-26T01:44:11;7.60;;;6.18;;
56233;SDS011;42141;53.240;6.580;2023-06-26T01:46:57;7.28;;;6.22;;
56233;SDS011;42141;53.240;6.580;2023-06-26T01:55:44;9.52;;;6.15;;
56233;SDS011;42141;53.240;6.580;2023-06-26T01:58:15;6.65;;;5.75;;
56233;SDS011;42141;53.240;6.580;2023-06-26T02:00:43;8.82;;;5.50;;
56233;SDS011;42141;53.240;6.580;2023-06-26T02:03:09;7.60;;;6.25;;
56233;SDS011;42141;53.240;6.580;2023-06-26T02:05:35;6.07;;;5.10;;
56233;SDS011;42141;53.240;6.580;2023-06-26T02:08:00;7.03;;;5.50;;
56233;SDS011;42141;53.240;6.580;2023-06-26T02:10:27;8.32;;;6.28;;
56233;SDS011;42141;53.240;6.580;2023-06-26T02:12:53;7.63;;;6.05;;
56233;SDS011;42141;53.240;6.580;2023-06-26T02:15:19;12.55;;;6.00;;
56233;SDS011;42141;53.240;6.580;2023-06-26T02:17:45;6.72;;;5.22;;
56233;SDS011;42141;53.240;6.580;2023-06-26T02:20:13;7.68;;;5.90;;
56233;SDS011;42141;53.240;6.580;2023-06-26T02:22:39;7.68;;;5.53;;
56233;SDS011;42141;53.240;6.580;2023-06-26T02:25:05;6.90;;;5.47;;
56233;SDS011;42141;53.240;6.580;2023-06-26T02:27:31;7.95;;;5.10;;
56233;SDS011;42141;53.240;6.580;2023-06-26T02:29:57;7.10;;;5.55;;
56233;SDS011;42141;53.240;6.580;2023-06-26T02:32:23;8.77;;;5.40;;
56233;SDS011;42141;53.240;6.580;2023-06-26T02:34:48;7.07;;;5.22;;
56233;SDS011;42141;53.240;6.580;2023-06-26T02:37:16;7.55;;;5.25;;
56233;SDS011;42141;53.240;6.580;2023-06-26T02:39:42;7.10;;;5.85;;
56233;SDS011;42141;53.240;6.580;2023-06-26T02:42:08;6.57;;;5.43;;
56233;SDS011;42141;53.240;6.580;2023-06-26T02:44:34;6.65;;;5.72;;
56233;SDS011;42141;53.240;6.580;2023-06-26T02:46:59;7.97;;;5.28;;
56233;SDS011;42141;53.240;6.580;2023-06-26T02:49:25;8.45;;;5.25;;
56233;SDS011;42141;53.240;6.580;2023-06-26T02:51:51;7.32;;;6.32;;
56233;SDS011;42141;53.240;6.580;2023-06-26T02:54:17;9.65;;;6.68;;
56233;SDS011;42141;53.240;6.580;2023-06-26T02:56:42;7.18;;;6.43;;
56233;SDS011;42141;53.240;6.580;2023-06-26T02:59:08;7.90;;;5.43;;
56233;SDS011;42141;53.240;6.580;2023-06-26T03:01:34;8.20;;;5.80;;
56233;SDS011;42141;53.240;6.580;2023-06-26T03:04:00;7.25;;;6.00;;
56233;SDS011;42141;53.240;6.580;2023-06-26T03:06:26;8.25;;;6.15;;
56233;SDS011;42141;53.240;6.580;2023-06-26T03:08:52;7.25;;;5.95;;
56233;SDS011;42141;53.240;6.580;2023-06-26T03:11:18;9.13;;;6.32;;
56233;SDS011;42141;53.240;6.580;2023-06-26T03:13:44;7.93;;;6.10;;
56233;SDS011;42141;53.240;6.580;2023-06-26T03:16:10;7.68;;;6.15;;
56233;SDS011;42141;53.240;6.580;2023-06-26T03:18:36;7.70;;;5.63;;
56233;SDS011;42141;53.240;6.580;2023-06-26T03:21:02;7.30;;;6.07;;
56233;SDS011;42141;53.240;6.580;2023-06-26T03:23:27;9.00;;;6.47;;
56233;SDS011;42141;53.240;6.580;2023-06-26T03:25:53;8.27;;;6.40;;
56233;SDS011;42141;53.240;6.580;2023-06-26T03:28:19;7.28;;;6.40;;
56233;SDS011;42141;53.240;6.580;2023-06-26T03:30:44;9.65;;;6.57;;
56233;SDS011;42141;53.240;6.580;2023-06-26T03:33:10;9.38;;;6.50;;
56233;SDS011;42141;53.240;6.580;2023-06-26T03:35:36;8.05;;;6.55;;
56233;SDS011;42141;53.240;6.580;2023-06-26T03:38:03;9.45;;;7.10;;
56233;SDS011;42141;53.240;6.580;2023-06-26T03:40:29;7.75;;;6.95;;
56233;SDS011;42141;53.240;6.580;2023-06-26T03:42:54;8.95;;;6.57;;
56233;SDS011;42141;53.240;6.580;2023-06-26T03:45:20;9.18;;;6.68;;
56233;SDS011;42141;53.240;6.580;2023-06-26T03:47:46;8.70;;;6.95;;
56233;SDS011;42141;53.240;6.580;2023-06-26T03:50:18;7.18;;;6.45;;
56233;SDS011;42141;53.240;6.580;2023-06-26T03:52:44;9.50;;;7.43;;
56233;SDS011;42141;53.240;6.580;2023-06-26T03:55:10;9.02;;;6.93;;
56233;SDS011;42141;53.240;6.580;2023-06-26T03:57:36;8.60;;;6.95;;
56233;SDS011;42141;53.240;6.580;2023-06-26T04:00:02;7.93;;;6.20;;
56233;SDS011;42141;53.240;6.580;2023-06-26T04:02:36;7.78;;;6.32;;
56233;SDS011;42141;53.240;6.580;2023-06-26T04:05:01;7.20;;;6.22;;
56233;SDS011;42141;53.240;6.580;2023-06-26T04:07:29;7.55;;;6.60;;
56233;SDS011;42141;53.240;6.580;2023-06-26T04:09:56;14.20;;;7.90;;
56233;SDS011;42141;53.240;6.580;2023-06-26T04:12:22;8.10;;;6.43;;
56233;SDS011;42141;53.240;6.580;2023-06-26T04:14:48;7.63;;;6.63;;
56233;SDS011;42141;53.240;6.580;2023-06-26T04:17:13;10.98;;;6.68;;
56233;SDS011;42141;53.240;6.580;2023-06-26T04:19:39;7.55;;;6.75;;
56233;SDS011;42141;53.240;6.580;2023-06-26T04:22:05;9.30;;;6.95;;
56233;SDS011;42141;53.240;6.580;2023-06-26T04:24:31;8.52;;;6.60;;
56233;SDS011;42141;53.240;6.580;2023-06-26T04:26:56;10.18;;;6.50;;
56233;SDS011;42141;53.240;6.580;2023-06-26T04:29:26;7.25;;;6.13;;
56233;SDS011;42141;53.240;6.580;2023-06-26T04:31:52;8.00;;;6.22;;
56233;SDS011;42141;53.240;6.580;2023-06-26T04:34:22;10.50;;;5.97;;
56233;SDS011;42141;53.240;6.580;2023-06-26T04:36:51;8.15;;;6.43;;
56233;SDS011;42141;53.240;6.580;2023-06-26T04:39:17;10.63;;;5.53;;
56233;SDS011;42141;53.240;6.580;2023-06-26T04:41:44;7.88;;;6.25;;
56233;SDS011;42141;53.240;6.580;2023-06-26T04:44:09;7.60;;;5.60;;
56233;SDS011;42141;53.240;6.580;2023-06-26T04:46:36;12.00;;;5.93;;
56233;SDS011;42141;53.240;6.580;2023-06-26T04:49:06;6.47;;;4.88;;
56233;SDS011;42141;53.240;6.580;2023-06-26T04:51:34;8.82;;;5.57;;
56233;SDS011;42141;53.240;6.580;2023-06-26T04:54:08;7.97;;;5.38;;
56233;SDS011;42141;53.240;6.580;2023-06-26T04:56:35;9.32;;;4.82;;
56233;SDS011;42141;53.240;6.580;2023-06-26T04:59:01;8.50;;;6.80;;
56233;SDS011;42141;53.240;6.580;2023-06-26T05:01:28;7.68;;;5.70;;
56233;SDS011;42141;53.240;6.580;2023-06-26T05:03:55;7.93;;;6.20;;
56233;SDS011;42141;53.240;6.580;2023-06-26T05:06:22;7.70;;;5.78;;
56233;SDS011;42141;53.240;6.580;2023-06-26T05:08:48;13.10;;;6.68;;
56233;SDS011;42141;53.240;6.580;2023-06-26T05:11:13;8.95;;;5.95;;
56233;SDS011;42141;53.240;6.580;2023-06-26T05:13:39;8.07;;;6.53;;
56233;SDS011;42141;53.240;6.580;2023-06-26T05:16:05;10.07;;;7.18;;
56233;SDS011;42141;53.240;6.580;2023-06-26T05:18:34;16.58;;;6.10;;
56233;SDS011;42141;53.240;6.580;2023-06-26T05:21:00;14.15;;;6.50;;
56233;SDS011;42141;53.240;6.580;2023-06-26T05:23:26;10.82;;;6.88;;
56233;SDS011;42141;53.240;6.580;2023-06-26T05:25:54;14.60;;;6.70;;
56233;SDS011;42141;53.240;6.580;2023-06-26T05:28:20;20.52;;;7.85;;
56233;SDS011;42141;53.240;6.580;2023-06-26T05:30:46;14.93;;;6.32;;
56233;SDS011;42141;53.240;6.580;2023-06-26T05:33:12;13.02;;;7.68;;
56233;SDS011;42141;53.240;6.580;2023-06-26T05:35:42;14.13;;;6.90;;
56233;SDS011;42141;53.240;6.580;2023-06-26T05:38:11;10.63;;;6.00;;
56233;SDS011;42141;53.240;6.580;2023-06-26T05:40:38;11.32;;;5.43;;
56233;SDS011;42141;53.240;6.580;2023-06-26T05:43:05;9.07;;;4.53;;
56233;SDS011;42141;53.240;6.580;2023-06-26T05:45:32;14.70;;;4.70;;
56233;SDS011;42141;53.240;6.580;2023-06-26T05:47:58;10.15;;;5.00;;
56233;SDS011;42141;53.240;6.580;2023-06-26T05:50:24;10.00;;;4.18;;
56233;SDS011;42141;53.240;6.580;2023-06-26T05:52:50;11.57;;;4.50;;
56233;SDS011;42141;53.240;6.580;2023-06-26T05:55:16;11.80;;;4.20;;
56233;SDS011;42141;53.240;6.580;2023-06-26T05:57:42;10.75;;;4.28;;
56233;SDS011;42141;53.240;6.580;2023-06-26T06:00:10;8.98;;;4.40;;
56233;SDS011;42141;53.240;6.580;2023-06-26T06:02:37;10.13;;;3.53;;
56233;SDS011;42141;53.240;6.580;2023-06-26T06:05:03;12.20;;;4.18;;
56233;SDS011;42141;53.240;6.580;2023-06-26T06:07:31;14.90;;;3.70;;
56233;SDS011;42141;53.240;6.580;2023-06-26T06:10:01;12.73;;;3.40;;
56233;SDS011;42141;53.240;6.580;2023-06-26T06:12:27;15.40;;;4.70;;
56233;SDS011;42141;53.240;6.580;2023-06-26T06:14:53;9.88;;;3.00;;
56233;SDS011;42141;53.240;6.580;2023-06-26T06:17:20;9.02;;;3.30;;
56233;SDS011;42141;53.240;6.580;2023-06-26T06:19:46;10.88;;;2.97;;
56233;SDS011;42141;53.240;6.580;2023-06-26T06:22:11;11.18;;;2.50;;
56233;SDS011;42141;53.240;6.580;2023-06-26T06:24:37;11.57;;;3.55;;
56233;SDS011;42141;53.240;6.580;2023-06-26T06:27:03;8.18;;;2.28;;
56233;SDS011;42141;53.240;6.580;2023-06-26T06:29:29;9.00;;;2.33;;
56233;SDS011;42141;53.240;6.580;2023-06-26T06:31:54;7.43;;;2.30;;
56233;SDS011;42141;53.240;6.580;2023-06-26T06:34:20;9.68;;;2.47;;
56233;SDS011;42141;53.240;6.580;2023-06-26T06:36:46;9.63;;;2.38;;
56233;SDS011;42141;53.240;6.580;2023-06-26T06:39:12;8.07;;;2.58;;
56233;SDS011;42141;53.240;6.580;2023-06-26T06:41:38;12.02;;;2.47;;
56233;SDS011;42141;53.240;6.580;2023-06-26T06:44:04;11.02;;;3.13;;
56233;SDS011;42141;53.240;6.580;2023-06-26T06:46:29;8.05;;;2.05;;
56233;SDS011;42141;53.240;6.580;2023-06-26T06:48:55;10.05;;;2.63;;
56233;SDS011;42141;53.240;6.580;2023-06-26T06:51:21;13.32;;;3.10;;
56233;SDS011;42141;53.240;6.580;2023-06-26T06:53:47;8.18;;;2.55;;
56233;SDS011;42141;53.240;6.580;2023-06-26T06:56:13;8.82;;;1.48;;
56233;SDS011;42141;53.240;6.580;2023-06-26T06:58:39;4.10;;;1.92;;
56233;SDS011;42141;53.240;6.580;2023-06-26T07:01:07;10.27;;;2.00;;
56233;SDS011;42141;53.240;6.580;2023-06-26T07:03:34;6.25;;;1.70;;
56233;SDS011;42141;53.240;6.580;2023-06-26T07:06:01;11.80;;;2.10;;
56233;SDS011;42141;53.240;6.580;2023-06-26T07:08:26;3.97;;;1.38;;
56233;SDS011;42141;53.240;6.580;2023-06-26T07:10:52;3.38;;;1.40;;
56233;SDS011;42141;53.240;6.580;2023-06-26T07:13:18;3.35;;;1.23;;
56233;SDS011;42141;53.240;6.580;2023-06-26T07:15:44;4.18;;;1.20;;
56233;SDS011;42141;53.240;6.580;2023-06-26T07:18:10;5.72;;;1.30;;
56233;SDS011;42141;53.240;6.580;2023-06-26T07:20:36;6.88;;;1.50;;
56233;SDS011;42141;53.240;6.580;2023-06-26T07:23:02;5.32;;;1.42;;
56233;SDS011;42141;53.240;6.580;2023-06-26T07:25:27;5.50;;;1.50;;
56233;SDS011;42141;53.240;6.580;2023-06-26T07:27:53;5.25;;;1.05;;
56233;SDS011;42141;53.240;6.580;2023-06-26T07:30:19;4.15;;;1.13;;
56233;SDS011;42141;53.240;6.580;2023-06-26T07:32:45;5.47;;;1.20;;
56233;SDS011;42141;53.240;6.580;2023-06-26T07:35:11;5.35;;;1.48;;
56233;SDS011;42141;53.240;6.580;2023-06-26T07:37:36;5.90;;;1.58;;
56233;SDS011;42141;53.240;6.580;2023-06-26T07:40:02;5.05;;;1.20;;
56233;SDS011;42141;53.240;6.580;2023-06-26T07:42:28;7.65;;;1.23;;
56233;SDS011;42141;53.240;6.580;2023-06-26T07:44:54;10.48;;;1.98;;
56233;SDS011;42141;53.240;6.580;2023-06-26T07:47:24;3.60;;;0.90;;
56233;SDS011;42141;53.240;6.580;2023-06-26T07:49:50;4.53;;;1.40;;
56233;SDS011;42141;53.240;6.580;2023-06-26T07:52:15;8.23;;;0.85;;
56233;SDS011;42141;53.240;6.580;2023-06-26T07:54:41;4.78;;;0.80;;
56233;SDS011;42141;53.240;6.580;2023-06-26T07:57:07;3.20;;;1.10;;
56233;SDS011;42141;53.240;6.580;2023-06-26T07:59:33;2.50;;;0.80;;
56233;SDS011;42141;53.240;6.580;2023-06-26T08:02:00;5.30;;;1.13;;
56233;SDS011;42141;53.240;6.580;2023-06-26T08:04:27;3.97;;;0.82;;
56233;SDS011;42141;53.240;6.580;2023-06-26T08:06:56;4.82;;;1.15;;
56233;SDS011;42141;53.240;6.580;2023-06-26T08:09:23;4.57;;;0.90;;
56233;SDS011;42141;53.240;6.580;2023-06-26T08:11:50;4.43;;;0.85;;
56233;SDS011;42141;53.240;6.580;2023-06-26T08:14:17;3.05;;;0.88;;
56233;SDS011;42141;53.240;6.580;2023-06-26T08:16:43;5.72;;;0.82;;
56233;SDS011;42141;53.240;6.580;2023-06-26T08:19:09;3.20;;;1.23;;
56233;SDS011;42141;53.240;6.580;2023-06-26T08:21:35;4.15;;;0.90;;
56233;SDS011;42141;53.240;6.580;2023-06-26T08:24:01;2.80;;;1.63;;
56233;SDS011;42141;53.240;6.580;2023-06-26T08:26:27;2.83;;;0.90;;
56233;SDS011;42141;53.240;6.580;2023-06-26T08:28:53;4.53;;;0.80;;
56233;SDS011;42141;53.240;6.580;2023-06-26T08:31:19;6.22;;;1.00;;
56233;SDS011;42141;53.240;6.580;2023-06-26T08:33:45;3.65;;;1.00;;
56233;SDS011;42141;53.240;6.580;2023-06-26T08:36:11;4.50;;;1.05;;
56233;SDS011;42141;53.240;6.580;2023-06-26T08:38:37;5.28;;;1.23;;
56233;SDS011;42141;53.240;6.580;2023-06-26T08:41:05;3.75;;;0.95;;
56233;SDS011;42141;53.240;6.580;2023-06-26T08:43:34;5.55;;;1.17;;
56233;SDS011;42141;53.240;6.580;2023-06-26T08:46:01;7.40;;;1.23;;
56233;SDS011;42141;53.240;6.580;2023-06-26T08:48:29;3.28;;;0.73;;
56233;SDS011;42141;53.240;6.580;2023-06-26T08:51:00;6.20;;;1.10;;
56233;SDS011;42141;53.240;6.580;2023-06-26T08:53:33;2.08;;;0.65;;
56233;SDS011;42141;53.240;6.580;2023-06-26T08:56:15;2.50;;;1.00;;
56233;SDS011;42141;53.240;6.580;2023-06-26T08:58:43;3.38;;;0.98;;
56233;SDS011;42141;53.240;6.580;2023-06-26T09:01:10;4.63;;;0.95;;
56233;SDS011;42141;53.240;6.580;2023-06-26T09:03:36;3.88;;;1.05;;
56233;SDS011;42141;53.240;6.580;2023-06-26T09:06:02;2.25;;;1.23;;
56233;SDS011;42141;53.240;6.580;2023-06-26T09:08:28;3.47;;;1.00;;
56233;SDS011;42141;53.240;6.580;2023-06-26T09:10:54;1.88;;;0.70;;
56233;SDS011;42141;53.240;6.580;2023-06-26T09:13:19;3.60;;;1.50;;
56233;SDS011;42141;53.240;6.580;2023-06-26T09:15:46;3.35;;;1.08;;
56233;SDS011;42141;53.240;6.580;2023-06-26T09:18:12;2.50;;;1.02;;
56233;SDS011;42141;53.240;6.580;2023-06-26T09:20:41;3.75;;;1.02;;
56233;SDS011;42141;53.240;6.580;2023-06-26T09:23:07;4.05;;;1.35;;
56233;SDS011;42141;53.240;6.580;2023-06-26T09:25:34;2.97;;;0.90;;
56233;SDS011;42141;53.240;6.580;2023-06-26T09:28:04;2.72;;;1.13;;
56233;SDS011;42141;53.240;6.580;2023-06-26T09:30:33;2.95;;;1.30;;
56233;SDS011;42141;53.240;6.580;2023-06-26T09:33:18;3.95;;;0.98;;
56233;SDS011;42141;53.240;6.580;2023-06-26T09:35:45;4.28;;;1.23;;
56233;SDS011;42141;53.240;6.580;2023-06-26T09:38:12;3.05;;;1.05;;
56233;SDS011;42141;53.240;6.580;2023-06-26T09:40:38;2.28;;;1.00;;
56233;SDS011;42141;53.240;6.580;2023-06-26T09:43:05;2.50;;;1.08;;
56233;SDS011;42141;53.240;6.580;2023-06-26T09:45:32;2.33;;;0.90;;
56233;SDS011;42141;53.240;6.580;2023-06-26T09:48:01;2.78;;;1.10;;
56233;SDS011;42141;53.240;6.580;2023-06-26T09:50:32;4.05;;;0.90;;
56233;SDS011;42141;53.240;6.580;2023-06-26T09:53:12;4.35;;;0.90;;
56233;SDS011;42141;53.240;6.580;2023-06-26T09:55:38;4.97;;;1.42;;
56233;SDS011;42141;53.240;6.580;2023-06-26T09:58:05;4.97;;;1.15;;
56233;SDS011;42141;53.240;6.580;2023-06-26T10:00:31;4.97;;;1.92;;
56233;SDS011;42141;53.240;6.580;2023-06-26T10:03:01;1.80;;;0.90;;
56233;SDS011;42141;53.240;6.580;2023-06-26T10:05:27;3.10;;;1.60;;
56233;SDS011;42141;53.240;6.580;2023-06-26T10:07:53;3.10;;;1.05;;
56233;SDS011;42141;53.240;6.580;2023-06-26T10:10:19;3.03;;;1.30;;
56233;SDS011;42141;53.240;6.580;2023-06-26T10:12:48;3.80;;;1.30;;
56233;SDS011;42141;53.240;6.580;2023-06-26T10:15:16;3.30;;;1.20;;
56233;SDS011;42141;53.240;6.580;2023-06-26T10:17:44;3.75;;;1.30;;
56233;SDS011;42141;53.240;6.580;2023-06-26T10:20:12;3.40;;;1.50;;
56233;SDS011;42141;53.240;6.580;2023-06-26T10:22:43;3.78;;;1.00;;
56233;SDS011;42141;53.240;6.580;2023-06-26T10:25:12;2.72;;;1.23;;
56233;SDS011;42141;53.240;6.580;2023-06-26T10:27:43;2.75;;;1.20;;
56233;SDS011;42141;53.240;6.580;2023-06-26T10:30:14;2.85;;;1.13;;
56233;SDS011;42141;53.240;6.580;2023-06-26T10:32:45;4.25;;;1.60;;
56233;SDS011;42141;53.240;6.580;2023-06-26T10:35:11;3.28;;;1.40;;
56233;SDS011;42141;53.240;6.580;2023-06-26T10:37:41;4.13;;;1.20;;
56233;SDS011;42141;53.240;6.580;2023-06-26T10:40:09;4.47;;;1.23;;
56233;SDS011;42141;53.240;6.580;2023-06-26T10:42:36;2.63;;;1.15;;
56233;SDS011;42141;53.240;6.580;2023-06-26T10:45:09;3.97;;;1.60;;
56233;SDS011;42141;53.240;6.580;2023-06-26T10:47:39;3.22;;;1.90;;
56233;SDS011;42141;53.240;6.580;2023-06-26T10:50:25;2.83;;;1.10;;
56233;SDS011;42141;53.240;6.580;2023-06-26T10:53:10;3.88;;;1.30;;
56233;SDS011;42141;53.240;6.580;2023-06-26T10:55:49;1.95;;;1.20;;
56233;SDS011;42141;53.240;6.580;2023-06-26T11:03:37;3.80;;;1.13;;
56233;SDS011;42141;53.240;6.580;2023-06-26T11:06:13;1.65;;;1.02;;
56233;SDS011;42141;53.240;6.580;2023-06-26T11:08:44;4.93;;;1.58;;
56233;SDS011;42141;53.240;6.580;2023-06-26T11:11:14;5.85;;;1.52;;
56233;SDS011;42141;53.240;6.580;2023-06-26T11:13:40;1.75;;;0.93;;
56233;SDS011;42141;53.240;6.580;2023-06-26T11:16:06;8.32;;;1.27;;
56233;SDS011;42141;53.240;6.580;2023-06-26T11:18:32;4.75;;;0.98;;
56233;SDS011;42141;53.240;6.580;2023-06-26T11:21:08;7.90;;;1.48;;
56233;SDS011;42141;53.240;6.580;2023-06-26T11:23:35;3.33;;;1.13;;
56233;SDS011;42141;53.240;6.580;2023-06-26T11:26:18;6.05;;;1.40;;
56233;SDS011;42141;53.240;6.580;2023-06-26T11:28:55;2.17;;;0.70;;
56233;SDS011;42141;53.240;6.580;2023-06-26T11:31:25;3.00;;;1.17;;
56233;SDS011;42141;53.240;6.580;2023-06-26T11:33:53;2.30;;;0.52;;
56233;SDS011;42141;53.240;6.580;2023-06-26T11:36:19;3.15;;;1.05;;
56233;SDS011;42141;53.240;6.580;2023-06-26T11:38:53;2.30;;;0.70;;
56233;SDS011;42141;53.240;6.580;2023-06-26T11:41:24;5.05;;;1.02;;
56233;SDS011;42141;53.240;6.580;2023-06-26T11:43:52;4.55;;;0.90;;
56233;SDS011;42141;53.240;6.580;2023-06-26T11:46:19;4.45;;;0.90;;
56233;SDS011;42141;53.240;6.580;2023-06-26T11:48:47;2.78;;;0.60;;
56233;SDS011;42141;53.240;6.580;2023-06-26T11:51:14;3.70;;;0.73;;
56233;SDS011;42141;53.240;6.580;2023-06-26T11:53:40;4.25;;;1.00;;
56233;SDS011;42141;53.240;6.580;2023-06-26T11:56:08;2.85;;;0.82;;
56233;SDS011;42141;53.240;6.580;2023-06-26T11:58:35;3.60;;;0.75;;
56233;SDS011;42141;53.240;6.580;2023-06-26T12:01:00;2.35;;;0.60;;
56233;SDS011;42141;53.240;6.580;2023-06-26T12:03:26;2.72;;;0.90;;
56233;SDS011;42141;53.240;6.580;2023-06-26T12:05:52;5.75;;;0.82;;
56233;SDS011;42141;53.240;6.580;2023-06-26T12:08:18;2.47;;;0.93;;
56233;SDS011;42141;53.240;6.580;2023-06-26T12:10:44;3.50;;;0.90;;
56233;SDS011;42141;53.240;6.580;2023-06-26T12:13:10;4.80;;;0.93;;
56233;SDS011;42141;53.240;6.580;2023-06-26T12:15:36;5.22;;;0.98;;
56233;SDS011;42141;53.240;6.580;2023-06-26T12:18:07;3.75;;;0.68;;
56233;SDS011;42141;53.240;6.580;2023-06-26T12:20:39;4.60;;;0.80;;
56233;SDS011;42141;53.240;6.580;2023-06-26T12:23:11;3.55;;;1.15;;
56233;SDS011;42141;53.240;6.580;2023-06-26T12:28:03;3.67;;;0.90;;
56233;SDS011;42141;53.240;6.580;2023-06-26T12:30:40;3.40;;;0.80;;
56233;SDS011;42141;53.240;6.580;2023-06-26T12:33:12;2.17;;;0.75;;
56233;SDS011;42141;53.240;6.580;2023-06-26T12:35:39;5.63;;;0.98;;
56233;SDS011;42141;53.240;6.580;2023-06-26T12:38:06;3.80;;;0.65;;
56233;SDS011;42141;53.240;6.580;2023-06-26T12:40:35;4.22;;;0.68;;
56233;SDS011;42141;53.240;6.580;2023-06-26T12:43:11;4.03;;;0.85;;
56233;SDS011;42141;53.240;6.580;2023-06-26T12:45:47;2.80;;;0.60;;
56233;SDS011;42141;53.240;6.580;2023-06-26T12:48:12;3.17;;;0.77;;
56233;SDS011;42141;53.240;6.580;2023-06-26T12:50:47;2.05;;;0.70;;
56233;SDS011;42141;53.240;6.580;2023-06-26T12:53:15;4.53;;;1.05;;
56233;SDS011;42141;53.240;6.580;2023-06-26T12:55:41;2.22;;;1.20;;
56233;SDS011;42141;53.240;6.580;2023-06-26T12:58:06;1.08;;;0.60;;
56233;SDS011;42141;53.240;6.580;2023-06-26T13:00:32;4.15;;;1.55;;
56233;SDS011;42141;53.240;6.580;2023-06-26T13:02:59;5.32;;;1.00;;
56233;SDS011;42141;53.240;6.580;2023-06-26T13:05:24;3.05;;;0.80;;
56233;SDS011;42141;53.240;6.580;2023-06-26T13:07:50;2.75;;;0.50;;
56233;SDS011;42141;53.240;6.580;2023-06-26T13:10:16;4.43;;;0.85;;
56233;SDS011;42141;53.240;6.580;2023-06-26T13:12:42;7.28;;;0.98;;
56233;SDS011;42141;53.240;6.580;2023-06-26T13:15:08;3.17;;;0.60;;
56233;SDS011;42141;53.240;6.580;2023-06-26T13:17:34;3.08;;;0.93;;
56233;SDS011;42141;53.240;6.580;2023-06-26T13:20:00;1.73;;;0.60;;
56233;SDS011;42141;53.240;6.580;2023-06-26T13:22:25;2.90;;;0.43;;
56233;SDS011;42141;53.240;6.580;2023-06-26T13:24:52;4.05;;;1.50;;
56233;SDS011;42141;53.240;6.580;2023-06-26T13:27:18;3.80;;;1.25;;
56233;SDS011;42141;53.240;6.580;2023-06-26T13:29:45;5.35;;;0.57;;
56233;SDS011;42141;53.240;6.580;2023-06-26T13:32:11;2.80;;;1.08;;
56233;SDS011;42141;53.240;6.580;2023-06-26T13:34:37;1.92;;;0.93;;
56233;SDS011;42141;53.240;6.580;2023-06-26T13:37:02;1.80;;;0.75;;
56233;SDS011;42141;53.240;6.580;2023-06-26T13:39:28;4.13;;;0.88;;
56233;SDS011;42141;53.240;6.580;2023-06-26T13:41:54;6.50;;;1.20;;
56233;SDS011;42141;53.240;6.580;2023-06-26T13:44:20;2.05;;;0.68;;
56233;SDS011;42141;53.240;6.580;2023-06-26T13:46:45;6.60;;;1.27;;
56233;SDS011;42141;53.240;6.580;2023-06-26T13:49:11;9.23;;;1.05;;
56233;SDS011;42141;53.240;6.580;2023-06-26T13:51:37;5.13;;;1.90;;
56233;SDS011;42141;53.240;6.580;2023-06-26T13:54:03;2.90;;;0.93;;
56233;SDS011;42141;53.240;6.580;2023-06-26T13:56:28;3.88;;;1.00;;
56233;SDS011;42141;53.240;6.580;2023-06-26T13:58:55;2.15;;;0.85;;
56233;SDS011;42141;53.240;6.580;2023-06-26T14:01:24;4.05;;;1.13;;
56233;SDS011;42141;53.240;6.580;2023-06-26T14:03:50;4.07;;;0.88;;
56233;SDS011;42141;53.240;6.580;2023-06-26T14:06:15;4.10;;;0.50;;
56233;SDS011;42141;53.240;6.580;2023-06-26T14:08:41;4.60;;;1.35;;
56233;SDS011;42141;53.240;6.580;2023-06-26T14:11:07;3.47;;;0.80;;
56233;SDS011;42141;53.240;6.580;2023-06-26T14:13:32;5.38;;;1.45;;
56233;SDS011;42141;53.240;6.580;2023-06-26T14:15:58;3.28;;;1.00;;
56233;SDS011;42141;53.240;6.580;2023-06-26T14:18:23;6.28;;;0.90;;
56233;SDS011;42141;53.240;6.580;2023-06-26T14:20:49;4.00;;;0.77;;
56233;SDS011;42141;53.240;6.580;2023-06-26T14:23:15;4.15;;;1.05;;
56233;SDS011;42141;53.240;6.580;2023-06-26T14:25:41;5.40;;;1.10;;
56233;SDS011;42141;53.240;6.580;2023-06-26T14:28:06;4.90;;;0.98;;
56233;SDS011;42141;53.240;6.580;2023-06-26T14:30:32;4.60;;;1.40;;
56233;SDS011;42141;53.240;6.580;2023-06-26T14:32:58;4.95;;;0.95;;
56233;SDS011;42141;53.240;6.580;2023-06-26T14:35:23;10.05;;;0.93;;
56233;SDS011;42141;53.240;6.580;2023-06-26T14:37:49;4.68;;;1.08;;
56233;SDS011;42141;53.240;6.580;2023-06-26T14:40:15;4.18;;;1.35;;
56233;SDS011;42141;53.240;6.580;2023-06-26T14:42:40;2.58;;;1.02;;
56233;SDS011;42141;53.240;6.580;2023-06-26T14:45:08;4.30;;;0.82;;
56233;SDS011;42141;53.240;6.580;2023-06-26T14:47:34;1.55;;;0.65;;
56233;SDS011;42141;53.240;6.580;2023-06-26T14:50:00;3.25;;;0.75;;
56233;SDS011;42141;53.240;6.580;2023-06-26T14:52:28;6.22;;;0.90;;
56233;SDS011;42141;53.240;6.580;2023-06-26T14:54:54;2.17;;;0.70;;
56233;SDS011;42141;53.240;6.580;2023-06-26T14:57:20;2.83;;;0.73;;
56233;SDS011;42141;53.240;6.580;2023-06-26T14:59:46;3.85;;;0.60;;